Terminal Aerodrome Forecast
Issued by NWS Cleveland, OH

Home | Current Version | Previous Version | Graphics & Text | Print | Product List | Glossary On
Versions: 1 2 3 4 5 6 7 8 9 10 11 12 13 14 15 16 17 18
000
FTUS41 KCLE 271427 AAA
TAFYNG
TAF AMD
KYNG 271427Z 2714/2812 18014KT P6SM SCT100 BKN250
     FM271600 19015G25KT P6SM SCT050 OVC100
      TEMPO 2720/2723 5SM -TSRA BKN030CB OVC060
     FM272300 23015G25KT P6SM BKN040
     FM280200 24010KT P6SM BKN035=

USA.gov is the U.S. government's official web portal to all federal, state and local government web resources and services.